Pagrindinis puslapis
METAR-TAF:

METAR-TAF

Oro uostai :

Žilina, Slovakija

platuma: 49-14N, ilguma: 018-36-49E, Aukštis: 312 m

Dabartinis oras

Ataskaita buvo paskelbta 17 minutes, ne 20:00 UTC
Vėjas 1 kt nuo kintamojo kryptimis
Temperatūra -3°C
Drėgmė 100%
Slėgis 1045 hPa
Matomumas: 6000 m

METAR: LZZI 202000Z VRB01KT 6000 NSC M03/M03 Q1045

Laikas: 21:17 (20:17 UTC)

Prognozė

Ataskaita buvo paskelbta 3 valandos ir 17 minutes, ne 17:00 UTC
Prognozė galioja nuo 20 metu 18 UTC su 21 metu 03 UTC
Vėjas 2 kt nuo kintamojo kryptimis
Matomumas 10 km arba daugiau
Mažai debesys ne aukštis 4000 ft
Tapsmas
nuo 20 metu 22 UTC su 21 metu 00 UTC
Matomumas: 4000 m
rūkana
Laikinai
nuo 21 metu 00 UTC su 21 metu 03 UTC
Matomumas: 2500 m
Mažai debesys ne aukštis 300 ft
rūkana

TAF: LZZI 201700Z 2018/2103 VRB02KT 9999 FEW040 BECMG 2022/2100 4000 BR NSC TEMPO 2100/2103 2500 BR FEW003

Orai ataskaitas ir orų prognozės (METAR, TAF).

turimą stotys yra geltonos ir raudonos taškus žemėlapyje.

Perkelti pele per norėdami pamatyti stoties vardą.

Tada spustelėkite, norėdami matyti oro stebėjimo ir prognozės.

Norėdami pakeisti žemėlapį: spustelėkite ant žalios mygtukų su juodo kryžiaus žemyn,; žalią mygtuką su brūkšneliu, jei norite nutolinti; arba žalių rodyklių gretimoms žemėlapius.


METAR-TAF: